Fandon, Illinois
Current Conditions -  °F | °C
As of 3:35 PM on Saturday 22 Nov 2014 (Local Time) from KMQB Reporting Station
Overcast Overcast  
Wind Chill: 57°   Ceiling: 2300
Heat Index: 57°   Visibility: 10mi
Dew Point: 49°   Wind: 9mph
Humidity: 76%   Direction: 200°SSW
Pressure: 29.89"   Gusts: NA
Location:  40.3545°N, 90.7535°W
Report Text: KMQB 222135Z AUTO 20008KT 10SM OVC023 14/10 A2989 RMK AO2 T01390097
Loading
Personal Weather Stations






























Interactive Weather Map New forecast layout! Learn more

10-Day Weather Forecast

Advertisements
Track Severe Weather on mobile